Time;durP1;ratioP1;P1;durP2;ratioP2;P2;SDS_P1;SDS_P2;PMS_P1;PMS_P2;Temp;Humidity;BMP_temperature;BMP_pressure;BME280_temperature;BME280_humidity;BME280_pressure;Samples;Min_cycle;Max_cycle;Signal;HPM_P1;HPM_P2
2021/03/17 00:00:51;;;;;;;2.53;2.33;;;3.80;99.90;;;;;;5034164;28;20559;-74
2021/03/17 00:03:17;;;;;;;4.73;3.10;;;3.80;99.90;;;;;;5032788;28;20184;-74
2021/03/17 00:05:44;;;;;;;4.57;3.23;;;3.70;99.90;;;;;;5035522;28;20179;-74
2021/03/17 00:08:10;;;;;;;4.40;3.43;;;3.60;99.90;;;;;;5035577;28;20202;-75
2021/03/17 00:10:39;;;;;;;3.17;2.87;;;3.70;99.90;;;;;;5035678;28;20230;-75
2021/03/17 00:13:06;;;;;;;3.93;2.57;;;3.70;99.90;;;;;;5035356;28;20187;-74
2021/03/17 00:15:35;;;;;;;3.43;2.80;;;3.80;99.90;;;;;;5035488;28;20184;-74
2021/03/17 00:18:01;;;;;;;2.73;2.53;;;3.80;99.90;;;;;;5035163;28;20238;-74
2021/03/17 00:20:29;;;;;;;3.10;2.73;;;3.90;99.90;;;;;;5034968;28;20200;-74
2021/03/17 00:22:55;;;;;;;2.53;2.37;;;3.90;99.90;;;;;;5033901;28;20234;-74
2021/03/17 00:25:23;;;;;;;4.07;3.10;;;3.80;99.90;;;;;;5033966;28;20586;-75
2021/03/17 00:27:49;;;;;;;2.97;2.77;;;3.90;99.90;;;;;;5032490;28;20220;-74
2021/03/17 00:30:15;;;;;;;3.40;3.10;;;3.90;99.90;;;;;;5034166;28;20261;-74
2021/03/17 00:32:41;;;;;;;3.30;3.00;;;4.00;99.90;;;;;;5033198;28;20582;-75
2021/03/17 00:35:07;;;;;;;3.27;2.90;;;4.00;99.90;;;;;;5034807;28;20261;-74
2021/03/17 00:37:34;;;;;;;3.27;3.00;;;4.00;99.90;;;;;;5034508;28;20203;-74
2021/03/17 00:40:00;;;;;;;3.47;3.17;;;4.00;99.90;;;;;;5035050;28;20196;-74
2021/03/17 00:42:57;;;;;;;3.13;2.93;;;4.00;99.90;;;;;;5035047;28;20251;-75
2021/03/17 00:45:23;;;;;;;3.17;2.87;;;4.00;99.90;;;;;;5034887;28;20642;-74
2021/03/17 00:47:49;;;;;;;3.77;3.47;;;4.10;99.90;;;;;;5034949;28;20199;-74
2021/03/17 00:50:17;;;;;;;3.90;3.60;;;4.00;99.90;;;;;;5034746;28;20187;-75
2021/03/17 00:52:43;;;;;;;3.30;3.10;;;4.10;99.90;;;;;;5034097;28;20211;-75
2021/03/17 00:55:10;;;;;;;3.83;3.43;;;4.10;99.90;;;;;;5052745;28;20186;-75
2021/03/17 00:57:36;;;;;;;4.23;3.80;;;4.00;99.90;;;;;;5053217;28;20577;-74
2021/03/17 01:00:05;;;;;;;4.40;4.00;;;4.00;99.90;;;;;;5051574;28;20199;-75
2021/03/17 01:02:31;;;;;;;4.00;3.70;;;4.00;99.90;;;;;;5052994;28;20184;-75
2021/03/17 01:05:32;;;;;;;4.30;4.00;;;4.00;99.90;;;;;;5053903;28;20171;-74
2021/03/17 01:07:58;;;;;;;4.00;3.70;;;4.00;99.90;;;;;;5054390;28;20608;-74
2021/03/17 01:10:58;;;;;;;3.70;3.37;;;3.90;99.90;;;;;;5054601;28;20190;-74
2021/03/17 01:13:24;;;;;;;4.17;3.77;;;3.90;99.90;;;;;;5051553;28;20652;-74
2021/03/17 01:15:50;;;;;;;4.27;3.87;;;3.90;99.90;;;;;;5036257;28;20704;-74
2021/03/17 01:18:16;;;;;;;4.60;3.97;;;4.00;99.90;;;;;;5032691;28;20221;-74
2021/03/17 01:20:42;;;;;;;4.70;4.20;;;4.00;99.90;;;;;;5034356;28;20201;-74
2021/03/17 01:23:08;;;;;;;4.33;3.93;;;4.00;99.90;;;;;;5033765;28;20189;-75
2021/03/17 01:25:39;;;;;;;3.93;3.63;;;4.00;99.90;;;;;;5030699;28;20200;-74
2021/03/17 01:28:07;;;;;;;4.27;3.97;;;4.00;99.90;;;;;;5023126;28;20212;-75
2021/03/17 01:30:53;;;;;;;3.23;3.00;;;4.00;99.90;;;;;;5032480;28;20254;-74
2021/03/17 01:33:19;;;;;;;4.57;3.83;;;4.00;99.90;;;;;;5031145;28;20261;-74
2021/03/17 01:35:47;;;;;;;4.40;4.00;;;4.00;99.90;;;;;;5032553;28;20198;-74
2021/03/17 01:38:13;;;;;;;3.40;3.20;;;4.00;99.90;;;;;;5032356;28;20223;-74
2021/03/17 01:40:41;;;;;;;3.60;3.30;;;3.80;99.90;;;;;;5030934;28;20975;-74
2021/03/17 01:43:08;;;;;;;3.57;3.27;;;3.80;99.90;;;;;;5032199;28;20179;-74
2021/03/17 01:45:35;;;;;;;3.93;3.63;;;3.90;99.90;;;;;;5032276;28;20600;-74
2021/03/17 01:48:00;;;;;;;4.10;3.80;;;3.80;99.90;;;;;;5031801;28;20248;-74
2021/03/17 01:50:35;;;;;;;3.90;3.57;;;3.80;99.90;;;;;;5024356;28;20215;-74
2021/03/17 01:53:12;;;;;;;4.40;4.10;;;3.80;99.90;;;;;;5030007;28;20792;-75
2021/03/17 01:55:40;;;;;;;4.30;3.87;;;3.80;99.90;;;;;;5030229;28;20185;-74
2021/03/17 01:58:06;;;;;;;4.27;3.97;;;3.80;99.90;;;;;;5031839;28;20587;-74
2021/03/17 02:00:33;;;;;;;4.43;4.03;;;3.90;99.90;;;;;;5033247;28;20204;-74
2021/03/17 02:03:00;;;;;;;4.73;4.23;;;3.80;99.90;;;;;;5032414;28;20213;-75
2021/03/17 02:05:29;;;;;;;4.33;4.03;;;3.80;99.90;;;;;;5032082;28;20232;-74
2021/03/17 02:07:59;;;;;;;4.93;3.97;;;3.70;99.90;;;;;;5032010;28;20206;-74
2021/03/17 02:10:25;;;;;;;5.00;4.60;;;3.70;99.90;;;;;;5031602;28;20198;-74
2021/03/17 02:13:39;;;;;;;5.13;4.70;;;3.50;99.90;;;;;;5031130;28;20213;-74
2021/03/17 02:16:33;;;;;;;4.90;4.50;;;3.50;99.90;;;;;;5041528;28;20672;-74
2021/03/17 02:19:28;;;;;;;5.50;5.10;;;3.60;99.90;;;;;;5051441;28;20225;-74
2021/03/17 02:22:40;;;;;;;5.00;4.70;;;3.70;99.90;;;;;;5028796;28;20196;-74
2021/03/17 02:25:39;;;;;;;5.27;4.87;;;3.70;99.90;;;;;;5023464;28;20647;-75
2021/03/17 02:28:13;;;;;;;5.13;4.80;;;3.80;99.90;;;;;;5029704;28;20294;-74
2021/03/17 02:31:14;;;;;;;5.53;5.13;;;3.80;99.90;;;;;;5030789;28;20182;-74
2021/03/17 02:34:00;;;;;;;5.20;4.90;;;3.80;99.90;;;;;;4977175;28;20279;-74
2021/03/17 02:37:01;;;;;;;5.10;4.80;;;3.70;99.90;;;;;;5011904;28;20189;-75
2021/03/17 02:39:37;;;;;;;5.30;4.90;;;3.60;99.90;;;;;;5013145;28;20202;-74
2021/03/17 02:42:29;;;;;;;5.37;4.97;;;3.70;99.90;;;;;;5012955;28;20180;-74
2021/03/17 02:45:07;;;;;;;5.83;5.43;;;3.60;99.90;;;;;;5019836;28;20240;-74
2021/03/17 02:47:38;;;;;;;6.07;5.67;;;3.70;99.90;;;;;;5029230;28;20248;-74
2021/03/17 02:50:05;;;;;;;6.27;5.77;;;3.60;99.90;;;;;;5031835;28;20191;-74
2021/03/17 02:52:35;;;;;;;6.13;5.73;;;3.60;99.90;;;;;;5031414;28;20174;-74
2021/03/17 02:55:03;;;;;;;6.23;5.80;;;3.60;99.90;;;;;;5032837;28;20225;-74
2021/03/17 02:57:33;;;;;;;5.70;5.30;;;3.50;99.90;;;;;;5033078;28;20302;-74
2021/03/17 03:00:00;;;;;;;6.60;6.07;;;3.50;99.90;;;;;;5032370;28;20196;-74
2021/03/17 03:02:28;;;;;;;6.40;5.90;;;3.40;99.90;;;;;;5033306;28;20180;-74
2021/03/17 03:04:55;;;;;;;5.77;5.37;;;3.40;99.90;;;;;;5033013;28;20199;-73
2021/03/17 03:07:23;;;;;;;6.53;6.00;;;3.50;99.90;;;;;;5032181;28;20195;-74
2021/03/17 03:09:50;;;;;;;5.93;5.53;;;3.60;99.90;;;;;;5033046;28;20172;-74
2021/03/17 03:12:17;;;;;;;5.83;5.43;;;3.60;99.90;;;;;;5033016;28;20182;-74
2021/03/17 03:14:44;;;;;;;6.57;6.07;;;3.60;99.90;;;;;;5033192;28;20250;-74
2021/03/17 03:17:11;;;;;;;6.10;5.60;;;3.60;99.90;;;;;;5033049;28;20180;-74
2021/03/17 03:19:44;;;;;;;6.63;6.13;;;3.60;99.90;;;;;;5032993;28;20186;-73
2021/03/17 03:22:12;;;;;;;6.70;6.10;;;3.60;99.90;;;;;;5033113;28;20168;-74
2021/03/17 03:24:38;;;;;;;7.13;6.57;;;3.70;99.90;;;;;;5031682;28;20193;-74
2021/03/17 03:27:05;;;;;;;7.27;6.67;;;3.70;99.90;;;;;;5032691;28;20183;-73
2021/03/17 03:29:33;;;;;;;7.63;7.03;;;3.70;99.90;;;;;;5032815;28;20649;-74
2021/03/17 03:31:59;;;;;;;7.83;7.23;;;3.60;99.90;;;;;;5033130;28;20187;-74
2021/03/17 03:34:25;;;;;;;8.37;7.77;;;3.60;99.90;;;;;;5027633;28;20261;-74
2021/03/17 03:36:51;;;;;;;7.83;7.23;;;3.60;99.90;;;;;;5032634;28;20289;-74
2021/03/17 03:39:17;;;;;;;8.27;7.67;;;3.60;99.90;;;;;;5032961;28;20207;-74
2021/03/17 03:41:45;;;;;;;7.47;6.87;;;3.60;99.90;;;;;;5031441;28;20187;-74
2021/03/17 03:44:11;;;;;;;7.20;6.70;;;3.50;99.90;;;;;;5032711;28;20254;-74
2021/03/17 03:46:37;;;;;;;7.50;7.00;;;3.50;99.90;;;;;;5032652;28;20244;-74
2021/03/17 03:49:05;;;;;;;7.17;6.67;;;3.60;99.90;;;;;;5032549;28;20673;-74
2021/03/17 03:51:33;;;;;;;7.40;6.90;;;3.50;99.90;;;;;;5024169;28;20199;-74
2021/03/17 03:54:13;;;;;;;7.43;6.93;;;3.50;99.90;;;;;;5031440;28;20178;-74
2021/03/17 03:56:50;;;;;;;7.47;6.97;;;3.40;99.90;;;;;;5031283;28;20219;-74
2021/03/17 03:59:23;;;;;;;7.67;7.07;;;3.40;99.90;;;;;;5032554;28;20636;-74
2021/03/17 04:01:54;;;;;;;7.73;7.13;;;3.30;99.90;;;;;;5032734;28;20227;-74
2021/03/17 04:04:22;;;;;;;7.77;7.23;;;3.30;99.90;;;;;;5032738;28;20173;-74
2021/03/17 04:06:52;;;;;;;7.53;6.93;;;3.40;99.90;;;;;;5031909;28;20652;-74
2021/03/17 04:09:43;;;;;;;8.07;7.47;;;3.40;99.90;;;;;;5032249;28;20229;-73
2021/03/17 04:12:10;;;;;;;7.67;6.97;;;3.40;99.90;;;;;;5030996;28;20721;-75
2021/03/17 04:14:37;;;;;;;7.53;6.93;;;3.30;99.90;;;;;;5035888;28;20181;-74
2021/03/17 04:17:14;;;;;;;7.00;6.50;;;3.30;99.90;;;;;;5036036;28;20206;-73
2021/03/17 04:19:43;;;;;;;7.43;6.93;;;3.40;99.90;;;;;;5033780;28;20185;-74
2021/03/17 04:22:11;;;;;;;7.03;6.53;;;3.30;99.90;;;;;;5035838;28;20200;-74
2021/03/17 04:24:39;;;;;;;7.27;6.77;;;3.30;99.90;;;;;;5036062;28;20283;-74
2021/03/17 04:27:08;;;;;;;7.43;6.87;;;3.30;99.90;;;;;;5035676;28;20661;-74
2021/03/17 04:29:34;;;;;;;7.87;7.27;;;3.30;99.90;;;;;;5018253;28;20604;-74
2021/03/17 04:32:02;;;;;;;7.20;6.60;;;3.30;99.90;;;;;;5035881;28;20183;-74
2021/03/17 04:34:29;;;;;;;7.17;6.67;;;3.30;99.90;;;;;;5035647;28;20548;-74
2021/03/17 04:36:56;;;;;;;8.53;7.83;;;3.30;99.90;;;;;;5031220;28;20202;-74
2021/03/17 04:39:22;;;;;;;8.80;8.10;;;3.30;99.90;;;;;;5033704;28;20180;-74
2021/03/17 04:41:49;;;;;;;8.03;7.40;;;3.30;99.90;;;;;;5034263;28;20194;-74
2021/03/17 04:44:15;;;;;;;8.23;7.63;;;3.20;99.90;;;;;;5035268;28;20190;-74
2021/03/17 04:46:42;;;;;;;9.23;8.53;;;3.10;99.90;;;;;;5034971;28;20197;-74
2021/03/17 04:49:09;;;;;;;9.50;8.60;;;3.10;99.90;;;;;;5035717;28;20201;-74
2021/03/17 04:51:38;;;;;;;9.20;8.50;;;3.10;99.90;;;;;;5035528;28;20189;-74
2021/03/17 04:54:04;;;;;;;10.30;9.50;;;3.10;99.90;;;;;;5034099;28;20186;-74
2021/03/17 04:56:31;;;;;;;9.70;8.80;;;3.00;99.90;;;;;;5035193;28;20644;-74
2021/03/17 04:59:01;;;;;;;9.23;8.53;;;3.00;99.90;;;;;;5035386;28;20271;-74
2021/03/17 05:01:27;;;;;;;9.93;9.10;;;2.90;99.90;;;;;;5028873;28;20222;-74
2021/03/17 05:03:54;;;;;;;9.93;9.03;;;2.90;99.90;;;;;;5026770;28;20267;-74
2021/03/17 05:06:19;;;;;;;10.13;9.27;;;3.00;99.90;;;;;;5027734;28;20186;-74
2021/03/17 05:08:46;;;;;;;9.80;9.00;;;2.90;99.90;;;;;;5033731;28;20201;-74
2021/03/17 05:11:16;;;;;;;9.60;8.83;;;3.00;99.90;;;;;;5034152;28;20270;-74
2021/03/17 05:13:42;;;;;;;10.33;9.47;;;2.90;99.90;;;;;;5034682;28;20175;-75
2021/03/17 05:16:11;;;;;;;9.87;9.07;;;2.90;99.90;;;;;;5034537;28;20188;-75
2021/03/17 05:18:37;;;;;;;10.53;9.57;;;2.90;99.90;;;;;;5056092;22;20221;-71
2021/03/17 05:21:04;;;;;;;10.60;9.50;;;2.90;99.90;;;;;;5034647;28;20668;-73
2021/03/17 05:23:30;;;;;;;10.27;9.47;;;3.00;99.90;;;;;;5034921;28;20218;-73
2021/03/17 05:25:58;;;;;;;10.50;9.70;;;3.00;99.90;;;;;;5033585;28;20657;-72
2021/03/17 05:28:24;;;;;;;11.70;10.60;;;3.00;99.90;;;;;;5034488;28;20199;-72
2021/03/17 05:30:52;;;;;;;19.57;15.00;;;3.00;99.90;;;;;;5034652;28;20265;-73
2021/03/17 05:33:23;;;;;;;16.40;13.57;;;3.00;99.90;;;;;;5034887;28;20281;-72
2021/03/17 05:35:49;;;;;;;35.47;20.47;;;2.90;99.90;;;;;;5034853;28;20257;-73
2021/03/17 05:38:15;;;;;;;13.53;12.13;;;2.90;99.90;;;;;;5034656;28;20231;-72
2021/03/17 05:40:41;;;;;;;11.87;10.70;;;2.90;99.90;;;;;;5033091;28;20244;-72
2021/03/17 05:43:08;;;;;;;11.77;10.67;;;2.90;99.90;;;;;;5033848;28;20683;-73
2021/03/17 05:45:36;;;;;;;39.87;24.03;;;2.90;99.90;;;;;;5019657;28;20665;-72
2021/03/17 05:48:03;;;;;;;11.50;10.47;;;2.90;99.90;;;;;;5032539;28;20691;-72
2021/03/17 05:50:29;;;;;;;16.53;13.40;;;2.90;99.90;;;;;;5034579;28;20182;-72
2021/03/17 05:52:56;;;;;;;13.20;11.97;;;2.90;99.90;;;;;;5034253;28;20178;-72
2021/03/17 05:55:22;;;;;;;13.37;11.97;;;2.90;99.90;;;;;;5034468;28;20180;-72
2021/03/17 05:57:48;;;;;;;13.43;12.03;;;3.00;99.90;;;;;;5034289;28;20187;-72
2021/03/17 06:00:22;;;;;;;13.83;12.53;;;3.00;99.90;;;;;;5034016;28;20566;-72
2021/03/17 06:02:49;;;;;;;13.23;11.93;;;3.00;99.90;;;;;;5033655;28;20550;-72
2021/03/17 06:05:17;;;;;;;28.13;20.07;;;3.00;99.90;;;;;;5033965;28;20182;-72
2021/03/17 06:08:06;;;;;;;17.13;15.13;;;3.10;99.90;;;;;;5033888;28;20182;-73
2021/03/17 06:10:36;;;;;;;13.50;12.20;;;3.10;99.90;;;;;;5034922;28;20577;-73
2021/03/17 06:13:08;;;;;;;13.07;11.83;;;3.10;99.90;;;;;;5033921;28;20179;-72
2021/03/17 06:15:36;;;;;;;12.40;11.20;;;3.10;99.90;;;;;;5025126;28;20176;-72
2021/03/17 06:18:12;;;;;;;13.13;11.93;;;3.00;99.90;;;;;;5033398;28;20211;-72
2021/03/17 06:20:38;;;;;;;13.47;12.07;;;3.10;99.90;;;;;;5032435;28;20197;-72
2021/03/17 06:23:04;;;;;;;13.80;12.47;;;3.10;99.90;;;;;;5032448;28;20547;-72
2021/03/17 06:25:30;;;;;;;13.40;12.10;;;3.20;99.90;;;;;;5032296;28;20177;-72
2021/03/17 06:27:57;;;;;;;13.03;11.83;;;3.10;99.90;;;;;;5033738;28;20186;-72
2021/03/17 06:30:23;;;;;;;13.20;11.70;;;3.10;99.90;;;;;;5033851;28;20180;-72
2021/03/17 06:32:49;;;;;;;12.20;11.07;;;3.00;99.90;;;;;;5033374;28;20189;-72
2021/03/17 06:35:25;;;;;;;13.73;12.43;;;3.10;99.90;;;;;;5033295;28;20183;-72
2021/03/17 06:37:52;;;;;;;13.07;11.87;;;3.10;99.90;;;;;;5033395;28;20186;-72
2021/03/17 06:40:33;;;;;;;13.90;12.03;;;3.10;99.90;;;;;;5032070;28;20594;-72
2021/03/17 06:43:10;;;;;;;14.27;12.87;;;3.10;99.90;;;;;;5032104;28;20555;-72
2021/03/17 06:45:43;;;;;;;13.53;12.23;;;3.00;99.90;;;;;;5033548;28;20189;-72
2021/03/17 06:48:28;;;;;;;14.17;12.77;;;3.10;99.90;;;;;;5033226;28;20233;-72
2021/03/17 06:51:11;;;;;;;13.00;11.60;;;3.10;99.90;;;;;;5033427;28;20188;-72
2021/03/17 06:53:45;;;;;;;14.27;12.80;;;3.00;99.90;;;;;;5033225;28;20250;-71
2021/03/17 06:56:32;;;;;;;17.23;13.77;;;2.90;99.90;;;;;;5031897;28;20186;-72
2021/03/17 06:59:03;;;;;;;14.83;12.73;;;2.90;99.90;;;;;;5033097;28;20201;-72
2021/03/17 07:01:36;;;;;;;14.60;12.80;;;2.80;99.90;;;;;;5031843;28;20242;-72
2021/03/17 07:04:07;;;;;;;18.37;14.60;;;2.90;99.90;;;;;;5033226;28;20170;-72
2021/03/17 07:06:34;;;;;;;17.70;13.60;;;3.00;99.90;;;;;;5031936;28;20725;-72
2021/03/17 07:09:13;;;;;;;16.73;12.70;;;3.00;99.90;;;;;;5033139;28;20213;-72
2021/03/17 07:11:43;;;;;;;14.27;12.47;;;3.10;99.90;;;;;;5033066;28;20182;-72
2021/03/17 07:14:09;;;;;;;13.53;11.93;;;3.10;99.90;;;;;;5029256;28;20171;-73
2021/03/17 07:16:40;;;;;;;16.00;13.77;;;3.20;99.90;;;;;;5028358;28;20183;-73
2021/03/17 07:19:07;;;;;;;14.83;13.07;;;3.30;99.90;;;;;;5032939;28;20360;-72
2021/03/17 07:21:39;;;;;;;16.63;14.03;;;3.30;99.90;;;;;;5033076;28;20203;-72
2021/03/17 07:24:08;;;;;;;14.83;13.33;;;3.40;99.90;;;;;;5033373;28;20680;-72
2021/03/17 07:26:36;;;;;;;14.70;13.17;;;3.50;99.90;;;;;;5033052;28;20258;-72
2021/03/17 07:29:15;;;;;;;16.70;13.73;;;3.50;99.90;;;;;;5032824;28;20195;-73
2021/03/17 07:31:45;;;;;;;16.27;13.33;;;3.50;99.90;;;;;;5031787;28;20176;-72
2021/03/17 07:34:25;;;;;;;14.70;13.20;;;3.50;99.90;;;;;;5032817;28;20270;-73
2021/03/17 07:36:58;;;;;;;15.70;14.00;;;3.50;99.90;;;;;;5025898;28;20179;-72
2021/03/17 07:39:26;;;;;;;28.77;20.93;;;3.60;99.90;;;;;;5026170;28;20655;-73
2021/03/17 07:41:55;;;;;;;18.73;15.53;;;3.70;99.90;;;;;;5033048;28;20210;-72
2021/03/17 07:44:23;;;;;;;17.70;15.07;;;3.60;99.90;;;;;;5031604;28;20661;-72
2021/03/17 07:46:55;;;;;;;17.57;15.77;;;3.60;99.90;;;;;;5032735;28;20627;-72
2021/03/17 07:49:23;;;;;;;16.23;14.20;;;3.70;99.90;;;;;;5035612;28;20202;-72
2021/03/17 07:51:51;;;;;;;19.60;14.80;;;3.80;99.90;;;;;;5037384;28;20523;-72
2021/03/17 07:54:29;;;;;;;20.67;15.37;;;3.80;99.90;;;;;;5036521;28;20180;-72
2021/03/17 07:56:57;;;;;;;14.37;12.87;;;3.80;99.90;;;;;;5036714;28;20179;-72
2021/03/17 07:59:23;;;;;;;13.27;11.80;;;3.90;99.90;;;;;;5036351;28;20198;-72
2021/03/17 08:01:54;;;;;;;13.37;11.60;;;3.60;99.90;;;;;;5036227;28;20586;-72
2021/03/17 08:04:26;;;;;;;13.03;11.70;;;3.50;99.90;;;;;;5036581;28;20347;-72
2021/03/17 08:07:10;;;;;;;12.57;11.27;;;3.50;99.90;;;;;;5036332;28;20550;-72
2021/03/17 08:09:38;;;;;;;14.40;11.80;;;3.40;99.90;;;;;;5036260;28;20286;-72
2021/03/17 08:12:09;;;;;;;13.20;11.90;;;3.30;99.90;;;;;;5036248;28;20705;-72
2021/03/17 08:14:36;;;;;;;11.80;10.67;;;3.40;99.90;;;;;;5028984;28;20232;-72
2021/03/17 08:17:02;;;;;;;13.57;11.53;;;3.40;99.90;;;;;;5035226;28;20185;-73
2021/03/17 08:19:29;;;;;;;12.40;10.77;;;3.50;99.90;;;;;;5035847;28;20590;-73
2021/03/17 08:21:56;;;;;;;11.77;10.57;;;3.60;99.90;;;;;;5034658;28;20328;-72
2021/03/17 08:24:32;;;;;;;13.00;11.00;;;3.60;99.90;;;;;;5036285;28;20261;-72
2021/03/17 08:27:05;;;;;;;12.23;10.87;;;3.60;99.90;;;;;;5035858;28;20263;-74
2021/03/17 08:30:02;;;;;;;11.67;10.53;;;3.60;99.90;;;;;;5036214;28;20678;-72
2021/03/17 08:32:52;;;;;;;12.67;10.90;;;3.60;99.90;;;;;;5029703;28;20237;-72
2021/03/17 08:35:18;;;;;;;10.87;9.83;;;3.70;99.90;;;;;;5034508;28;20189;-71
2021/03/17 08:37:49;;;;;;;11.67;10.47;;;3.80;99.90;;;;;;5035564;28;20170;-72
2021/03/17 08:40:26;;;;;;;9.43;8.53;;;3.90;99.90;;;;;;5035537;28;20669;-72
2021/03/17 08:42:53;;;;;;;9.53;8.63;;;3.90;99.90;;;;;;5035724;28;20183;-72
2021/03/17 08:45:19;;;;;;;7.40;6.70;;;3.90;99.90;;;;;;5035688;28;20594;-72
2021/03/17 08:47:46;;;;;;;8.03;7.23;;;3.90;99.90;;;;;;5035420;28;20184;-72
2021/03/17 08:50:16;;;;;;;10.70;9.70;;;4.00;99.90;;;;;;5034283;28;20184;-72
2021/03/17 08:52:50;;;;;;;12.03;10.27;;;4.10;99.90;;;;;;5034072;28;20192;-72
2021/03/17 08:55:37;;;;;;;8.60;7.90;;;4.20;99.90;;;;;;5034144;28;20190;-72
2021/03/17 08:58:07;;;;;;;8.13;7.43;;;4.30;99.90;;;;;;5035070;28;20681;-71
2021/03/17 09:00:58;;;;;;;10.33;9.33;;;4.30;99.90;;;;;;5034841;28;20609;-72
2021/03/17 09:03:44;;;;;;;9.43;8.53;;;4.40;99.90;;;;;;5033888;28;20169;-72
2021/03/17 09:06:13;;;;;;;11.77;10.50;;;4.50;99.90;;;;;;5035372;28;20177;-72
2021/03/17 09:08:56;;;;;;;39.03;15.47;;;4.50;99.90;;;;;;5035001;28;20200;-72
2021/03/17 09:11:31;;;;;;;26.00;13.17;;;4.60;99.90;;;;;;5033894;28;20176;-73
2021/03/17 09:13:58;;;;;;;9.60;8.60;;;4.60;99.90;;;;;;5033055;28;20180;-75
2021/03/17 09:16:24;;;;;;;8.87;8.07;;;4.60;99.90;;;;;;5029020;28;20583;-72
2021/03/17 09:19:14;;;;;;;34.90;14.50;;;4.70;99.90;;;;;;5034926;28;20220;-72
2021/03/17 09:21:42;;;;;;;9.00;8.10;;;4.80;99.90;;;;;;5034727;28;20198;-73
2021/03/17 09:24:33;;;;;;;8.60;7.80;;;4.80;99.90;;;;;;5035076;28;20496;-72
2021/03/17 09:27:07;;;;;;;8.50;7.60;;;4.80;99.90;;;;;;5034984;28;20185;-73
2021/03/17 09:29:35;;;;;;;8.73;7.93;;;4.90;99.90;;;;;;5034954;28;20196;-71
2021/03/17 09:32:05;;;;;;;8.57;7.77;;;5.00;99.90;;;;;;5032929;28;20188;-73
2021/03/17 09:34:35;;;;;;;9.87;8.23;;;5.00;99.90;;;;;;5034636;28;20532;-72
2021/03/17 09:37:09;;;;;;;6.57;5.97;;;5.00;99.90;;;;;;5034544;28;20674;-72
2021/03/17 09:39:37;;;;;;;13.83;11.00;;;5.00;99.90;;;;;;5034732;28;20207;-73
2021/03/17 09:42:04;;;;;;;9.27;8.40;;;5.00;99.90;;;;;;5034396;28;20200;-72
2021/03/17 09:44:30;;;;;;;6.77;6.17;;;5.00;99.90;;;;;;5034636;28;20550;-73
2021/03/17 09:46:56;;;;;;;7.97;7.27;;;5.00;99.90;;;;;;5032885;28;20178;-72
2021/03/17 09:49:25;;;;;;;7.30;6.70;;;5.00;99.90;;;;;;5031189;28;20207;-72
2021/03/17 09:51:56;;;;;;;7.20;6.60;;;5.10;99.90;;;;;;5033481;28;20189;-72
2021/03/17 09:54:30;;;;;;;8.07;7.27;;;5.10;99.90;;;;;;5034263;28;20181;-73
2021/03/17 09:57:01;;;;;;;7.50;6.80;;;5.20;99.90;;;;;;5034473;28;20191;-72
2021/03/17 09:59:40;;;;;;;7.27;6.67;;;5.20;99.90;;;;;;5034425;28;20330;-73
2021/03/17 10:02:17;;;;;;;7.07;6.47;;;5.20;99.90;;;;;;5034289;28;20207;-72
2021/03/17 10:04:45;;;;;;;11.50;9.33;;;5.30;99.90;;;;;;5034352;28;20630;-72
2021/03/17 10:07:12;;;;;;;12.20;9.87;;;5.30;99.90;;;;;;5034144;28;20194;-72
2021/03/17 10:09:38;;;;;;;8.67;7.97;;;5.30;99.90;;;;;;5033867;28;20664;-72
2021/03/17 10:12:11;;;;;;;13.37;10.87;;;5.20;99.90;;;;;;5033175;28;20264;-72
2021/03/17 10:14:42;;;;;;;7.10;6.47;;;5.30;99.90;;;;;;5024959;28;20189;-73
2021/03/17 10:17:08;;;;;;;6.87;6.27;;;5.20;99.90;;;;;;5033391;28;20209;-72
2021/03/17 10:19:36;;;;;;;7.27;6.67;;;5.20;99.90;;;;;;5033546;28;20234;-73
2021/03/17 10:22:04;;;;;;;7.60;6.97;;;5.20;99.90;;;;;;5033621;28;20190;-72
2021/03/17 10:24:41;;;;;;;7.67;6.97;;;5.20;99.90;;;;;;5033739;28;20181;-71
2021/03/17 10:27:14;;;;;;;6.93;6.23;;;5.30;99.90;;;;;;5033638;28;20679;-73
2021/03/17 10:29:41;;;;;;;7.33;6.73;;;5.20;99.90;;;;;;5033852;28;20238;-71
2021/03/17 10:32:08;;;;;;;8.33;7.63;;;5.10;99.90;;;;;;5033788;28;20177;-71
2021/03/17 10:34:34;;;;;;;7.40;6.80;;;5.10;99.90;;;;;;5033772;28;20256;-71
2021/03/17 10:37:00;;;;;;;8.77;7.97;;;4.90;99.90;;;;;;5033490;28;20255;-71
2021/03/17 10:39:34;;;;;;;8.23;7.00;;;4.80;99.90;;;;;;5033357;28;20202;-72
2021/03/17 10:42:01;;;;;;;8.23;7.53;;;4.70;99.90;;;;;;5032949;28;20690;-72
2021/03/17 10:44:30;;;;;;;8.90;8.10;;;4.70;99.90;;;;;;5033296;28;20188;-72
2021/03/17 10:47:09;;;;;;;7.40;6.70;;;4.70;99.90;;;;;;5033597;28;20527;-71
2021/03/17 10:49:45;;;;;;;8.30;7.50;;;4.70;99.90;;;;;;5033515;28;20200;-72
2021/03/17 10:52:11;;;;;;;8.30;7.60;;;4.80;99.90;;;;;;5033391;28;20706;-71
2021/03/17 10:54:44;;;;;;;8.97;8.07;;;4.90;99.90;;;;;;5033133;28;20620;-73
2021/03/17 10:57:19;;;;;;;19.53;13.43;;;4.90;99.90;;;;;;5034156;28;20345;-73
2021/03/17 10:59:44;;;;;;;14.10;11.27;;;4.90;99.90;;;;;;5033076;28;20244;-73
2021/03/17 11:02:28;;;;;;;25.83;16.17;;;4.90;99.90;;;;;;5033181;28;20202;-73
2021/03/17 11:05:10;;;;;;;13.73;10.50;;;4.90;99.90;;;;;;5033387;28;20642;-72
2021/03/17 11:08:01;;;;;;;6.80;6.17;;;4.90;99.90;;;;;;5033320;28;20183;-71
2021/03/17 11:10:38;;;;;;;7.90;7.10;;;4.40;99.90;;;;;;5033362;28;20167;-72
2021/03/17 11:13:15;;;;;;;5.40;4.90;;;3.90;99.90;;;;;;5033160;28;20204;-73
2021/03/17 11:15:54;;;;;;;10.27;8.33;;;3.80;99.90;;;;;;5024408;28;20173;-71
2021/03/17 11:20:55;;;;;;;10.33;7.33;;;3.30;99.90;;;;;;5011868;28;20231;-75
2021/03/17 11:23:37;;;;;;;10.23;7.17;;;3.30;99.90;;;;;;5016643;28;20212;-75
2021/03/17 11:26:06;;;;;;;10.87;8.07;;;3.30;99.90;;;;;;5017295;28;20191;-74
2021/03/17 11:28:39;;;;;;;3.47;3.17;;;3.30;99.90;;;;;;5031217;28;20166;-72
2021/03/17 11:31:10;;;;;;;25.63;14.23;;;3.30;99.90;;;;;;5028357;28;20237;-72
2021/03/17 11:33:38;;;;;;;4.53;3.70;;;3.40;99.90;;;;;;5017073;28;20556;-72
2021/03/17 11:36:05;;;;;;;5.03;4.53;;;3.60;99.90;;;;;;5015741;28;20202;-73
2021/03/17 11:38:31;;;;;;;4.57;3.77;;;3.70;99.90;;;;;;5006412;28;20198;-72
2021/03/17 11:40:58;;;;;;;3.20;2.83;;;3.80;99.90;;;;;;5014892;28;20217;-73
2021/03/17 11:43:28;;;;;;;3.00;2.80;;;3.90;99.90;;;;;;5017072;28;20192;-73
2021/03/17 11:45:56;;;;;;;2.77;2.20;;;4.00;99.90;;;;;;5015010;28;20183;-72
2021/03/17 11:48:22;;;;;;;2.63;2.40;;;4.10;99.90;;;;;;5013609;28;20536;-72
2021/03/17 11:50:51;;;;;;;3.43;2.23;;;4.20;99.90;;;;;;5016878;28;20272;-73
2021/03/17 11:53:18;;;;;;;1.83;1.70;;;4.40;99.90;;;;;;5016610;28;20647;-73
2021/03/17 11:55:45;;;;;;;1.97;1.60;;;4.70;99.90;;;;;;5016809;28;20180;-72
2021/03/17 11:58:11;;;;;;;2.77;2.57;;;4.80;99.90;;;;;;5016564;28;20173;-74
2021/03/17 12:00:38;;;;;;;4.50;3.37;;;4.80;99.90;;;;;;5016427;28;20560;-72
2021/03/17 12:03:05;;;;;;;5.70;3.40;;;4.90;99.90;;;;;;5015948;28;20178;-72
2021/03/17 12:05:31;;;;;;;11.80;4.67;;;5.10;99.90;;;;;;5012396;28;20311;-72
2021/03/17 12:07:57;;;;;;;10.00;5.70;;;5.10;99.90;;;;;;5014128;28;20183;-73
2021/03/17 12:10:25;;;;;;;6.83;4.43;;;5.20;99.90;;;;;;5008194;28;20754;-71
2021/03/17 12:12:51;;;;;;;6.20;4.97;;;5.20;99.90;;;;;;4999735;28;20194;-72
2021/03/17 12:15:19;;;;;;;5.57;4.60;;;5.20;99.90;;;;;;5005431;28;20181;-71
2021/03/17 12:17:46;;;;;;;6.43;5.57;;;5.30;99.90;;;;;;5001446;28;20548;-72
2021/03/17 12:20:14;;;;;;;13.77;8.63;;;5.50;99.90;;;;;;5000105;28;20304;-73
2021/03/17 12:22:40;;;;;;;15.00;7.27;;;5.60;99.90;;;;;;4997490;28;20667;-72
2021/03/17 12:25:08;;;;;;;10.23;6.63;;;5.60;99.90;;;;;;4998643;28;20180;-73
2021/03/17 12:27:35;;;;;;;16.20;9.13;;;5.70;99.90;;;;;;5004561;28;20220;-72
2021/03/17 12:30:03;;;;;;;12.57;8.00;;;5.70;99.90;;;;;;5007618;28;20234;-72
2021/03/17 12:32:29;;;;;;;15.10;8.27;;;5.60;99.90;;;;;;5005155;28;20696;-72
2021/03/17 12:34:55;;;;;;;10.57;6.60;;;5.70;99.90;;;;;;5006417;28;20265;-72
2021/03/17 12:37:21;;;;;;;12.37;7.50;;;5.70;99.90;;;;;;5010937;28;20182;-73
2021/03/17 12:39:47;;;;;;;8.17;5.17;;;5.70;99.90;;;;;;5010782;28;20722;-73
2021/03/17 12:42:13;;;;;;;5.37;3.53;;;5.70;99.90;;;;;;5010076;28;20193;-72
2021/03/17 12:44:38;;;;;;;5.90;4.17;;;5.70;99.90;;;;;;5007831;28;20178;-73
2021/03/17 12:47:06;;;;;;;3.47;2.90;;;5.60;99.90;;;;;;5010775;28;20538;-73
2021/03/17 12:49:32;;;;;;;5.13;4.20;;;5.60;99.90;;;;;;5008613;28;20283;-72
2021/03/17 12:51:58;;;;;;;3.50;3.20;;;5.60;99.90;;;;;;5010518;28;20190;-72
2021/03/17 12:54:25;;;;;;;4.87;3.60;;;5.80;99.90;;;;;;5007984;28;20210;-72
2021/03/17 12:56:51;;;;;;;3.47;3.10;;;5.90;99.90;;;;;;5012316;28;20224;-73
2021/03/17 12:59:17;;;;;;;3.57;3.27;;;6.00;99.90;;;;;;5004852;28;20210;-73
2021/03/17 13:01:42;;;;;;;3.73;2.70;;;6.20;99.90;;;;;;5006528;28;20203;-73
2021/03/17 13:04:09;;;;;;;3.83;3.53;;;6.30;99.90;;;;;;5012090;28;20546;-72
2021/03/17 13:06:35;;;;;;;2.70;2.50;;;6.40;99.90;;;;;;5011100;28;20235;-73
2021/03/17 13:09:05;;;;;;;2.97;2.77;;;6.40;99.90;;;;;;5010932;28;20732;-73
2021/03/17 13:11:33;;;;;;;3.27;2.90;;;6.50;99.90;;;;;;5009954;28;20209;-73